sensor_id;sensor_type;location;lat;lon;timestamp;pressure;altitude;pressure_sealevel;temperature;humidity
21760;BME280;11041;50.854;20.580;2022-07-29T00:01:17;99135.56;;;14.35;70.04
21760;BME280;11041;50.854;20.580;2022-07-29T00:03:44;99143.53;;;14.37;70.44
21760;BME280;11041;50.854;20.580;2022-07-29T00:06:15;99133.13;;;14.34;70.33
21760;BME280;11041;50.854;20.580;2022-07-29T00:08:42;99143.53;;;14.37;70.39
21760;BME280;11041;50.854;20.580;2022-07-29T00:11:08;99144.34;;;14.37;70.43
21760;BME280;11041;50.854;20.580;2022-07-29T00:13:35;99146.78;;;14.39;70.12
21760;BME280;11041;50.854;20.580;2022-07-29T00:16:02;99136.34;;;14.36;70.25
21760;BME280;11041;50.854;20.580;2022-07-29T00:18:28;99140.44;;;14.38;70.12
21760;BME280;11041;50.854;20.580;2022-07-29T00:20:55;99136.19;;;14.41;70.20
21760;BME280;11041;50.854;20.580;2022-07-29T00:23:22;99136.66;;;14.43;70.06
21760;BME280;11041;50.854;20.580;2022-07-29T00:25:48;99138.47;;;14.39;70.45
21760;BME280;11041;50.854;20.580;2022-07-29T00:28:15;99140.28;;;14.35;70.38
21760;BME280;11041;50.854;20.580;2022-07-29T00:30:41;99139.31;;;14.31;70.56
21760;BME280;11041;50.854;20.580;2022-07-29T00:33:09;99145.66;;;14.31;70.46
21760;BME280;11041;50.854;20.580;2022-07-29T00:35:36;99150.38;;;14.31;70.64
21760;BME280;11041;50.854;20.580;2022-07-29T00:38:18;99153.78;;;14.27;70.50
21760;BME280;11041;50.854;20.580;2022-07-29T00:40:45;99146.81;;;14.21;70.90
21760;BME280;11041;50.854;20.580;2022-07-29T00:43:13;99143.78;;;14.14;70.79
21760;BME280;11041;50.854;20.580;2022-07-29T00:45:42;99152.69;;;14.11;71.07
21760;BME280;11041;50.854;20.580;2022-07-29T00:48:09;99150.59;;;14.08;71.33
21760;BME280;11041;50.854;20.580;2022-07-29T00:50:37;99153.19;;;14.04;71.39
21760;BME280;11041;50.854;20.580;2022-07-29T00:53:07;99151.13;;;13.93;71.60
21760;BME280;11041;50.854;20.580;2022-07-29T00:55:34;99145.13;;;13.82;72.48
21760;BME280;11041;50.854;20.580;2022-07-29T00:58:02;99138.31;;;13.71;72.66
21760;BME280;11041;50.854;20.580;2022-07-29T01:00:29;99149.50;;;13.66;72.97
21760;BME280;11041;50.854;20.580;2022-07-29T01:02:56;99150.50;;;13.61;73.25
21760;BME280;11041;50.854;20.580;2022-07-29T01:05:26;99151.81;;;13.55;73.38
21760;BME280;11041;50.854;20.580;2022-07-29T01:07:56;99153.09;;;13.49;73.68
21760;BME280;11041;50.854;20.580;2022-07-29T01:10:24;99145.13;;;13.38;74.02
21760;BME280;11041;50.854;20.580;2022-07-29T01:12:55;99150.97;;;13.37;74.15
21760;BME280;11041;50.854;20.580;2022-07-29T01:15:23;99137.34;;;13.32;74.48
21760;BME280;11041;50.854;20.580;2022-07-29T01:18:46;99143.34;;;13.34;74.49
21760;BME280;11041;50.854;20.580;2022-07-29T01:24:48;99148.66;;;13.21;75.15
21760;BME280;11041;50.854;20.580;2022-07-29T01:27:39;99154.81;;;13.10;75.22
21760;BME280;11041;50.854;20.580;2022-07-29T01:30:08;99135.00;;;12.90;75.67
21760;BME280;11041;50.854;20.580;2022-07-29T01:32:38;99143.91;;;12.87;75.78
21760;BME280;11041;50.854;20.580;2022-07-29T01:35:25;99143.41;;;12.85;76.40
21760;BME280;11041;50.854;20.580;2022-07-29T01:38:21;99150.69;;;12.81;76.86
21760;BME280;11041;50.854;20.580;2022-07-29T01:40:58;99138.22;;;12.75;77.13
21760;BME280;11041;50.854;20.580;2022-07-29T01:43:51;99132.97;;;12.65;77.12
21760;BME280;11041;50.854;20.580;2022-07-29T01:46:38;99141.38;;;12.60;77.56
21760;BME280;11041;50.854;20.580;2022-07-29T01:49:21;99142.34;;;12.55;77.72
21760;BME280;11041;50.854;20.580;2022-07-29T01:51:59;99134.22;;;12.50;77.77
21760;BME280;11041;50.854;20.580;2022-07-29T01:54:48;99136.66;;;12.51;78.02
21760;BME280;11041;50.854;20.580;2022-07-29T01:57:21;99133.56;;;12.44;78.22
21760;BME280;11041;50.854;20.580;2022-07-29T01:59:53;99120.06;;;12.34;77.88
21760;BME280;11041;50.854;20.580;2022-07-29T02:02:23;99125.88;;;12.32;78.17
21760;BME280;11041;50.854;20.580;2022-07-29T02:04:52;99140.03;;;12.40;78.32
21760;BME280;11041;50.854;20.580;2022-07-29T02:07:23;99136.59;;;12.34;78.01
21760;BME280;11041;50.854;20.580;2022-07-29T02:09:52;99132.03;;;12.29;78.27
21760;BME280;11041;50.854;20.580;2022-07-29T02:12:22;99126.84;;;12.28;78.65
21760;BME280;11041;50.854;20.580;2022-07-29T02:14:54;99136.91;;;12.32;78.63
21760;BME280;11041;50.854;20.580;2022-07-29T02:17:31;99135.75;;;12.33;78.89
21760;BME280;11041;50.854;20.580;2022-07-29T02:20:03;99127.34;;;12.30;78.84
21760;BME280;11041;50.854;20.580;2022-07-29T02:22:37;99123.94;;;12.33;79.02
21760;BME280;11041;50.854;20.580;2022-07-29T02:25:06;99132.06;;;12.38;78.97
21760;BME280;11041;50.854;20.580;2022-07-29T02:27:37;99134.66;;;12.43;78.98
21760;BME280;11041;50.854;20.580;2022-07-29T02:30:07;99141.19;;;12.47;78.90
21760;BME280;11041;50.854;20.580;2022-07-29T02:32:40;99131.09;;;12.43;78.94
21760;BME280;11041;50.854;20.580;2022-07-29T02:35:09;99126.25;;;12.40;78.35
21760;BME280;11041;50.854;20.580;2022-07-29T02:37:41;99125.09;;;12.41;78.63
21760;BME280;11041;50.854;20.580;2022-07-29T02:40:12;99133.38;;;12.41;78.43
21760;BME280;11041;50.854;20.580;2022-07-29T02:42:44;99123.94;;;12.33;78.92
21760;BME280;11041;50.854;20.580;2022-07-29T02:45:12;99128.00;;;12.35;78.54
21760;BME280;11041;50.854;20.580;2022-07-29T02:47:49;99124.06;;;12.28;78.88
21760;BME280;11041;50.854;20.580;2022-07-29T02:50:29;99118.41;;;12.24;79.20
21760;BME280;11041;50.854;20.580;2022-07-29T02:53:13;99128.28;;;12.25;79.12
21760;BME280;11041;50.854;20.580;2022-07-29T02:55:46;99110.75;;;12.21;79.21
21760;BME280;11041;50.854;20.580;2022-07-29T02:58:32;99112.69;;;12.21;79.09
21760;BME280;11041;50.854;20.580;2022-07-29T03:01:23;99117.72;;;12.19;79.42
21760;BME280;11041;50.854;20.580;2022-07-29T03:03:53;99120.09;;;12.11;79.67
21760;BME280;11041;50.854;20.580;2022-07-29T03:06:25;99115.72;;;12.10;79.13
21760;BME280;11041;50.854;20.580;2022-07-29T03:08:55;99125.47;;;12.17;79.42
21760;BME280;11041;50.854;20.580;2022-07-29T03:11:24;99108.91;;;12.08;79.78
21760;BME280;11041;50.854;20.580;2022-07-29T03:13:52;99123.34;;;12.13;79.89
21760;BME280;11041;50.854;20.580;2022-07-29T03:16:21;99106.31;;;12.11;79.30
21760;BME280;11041;50.854;20.580;2022-07-29T03:18:50;99119.47;;;12.14;79.75
21760;BME280;11041;50.854;20.580;2022-07-29T03:21:17;99110.09;;;12.15;79.60
21760;BME280;11041;50.854;20.580;2022-07-29T03:23:44;99117.72;;;12.19;80.05
21760;BME280;11041;50.854;20.580;2022-07-29T03:26:12;99107.31;;;12.15;79.60
21760;BME280;11041;50.854;20.580;2022-07-29T03:28:39;99113.66;;;12.16;79.93
21760;BME280;11041;50.854;20.580;2022-07-29T03:31:05;99113.94;;;12.14;80.44
21760;BME280;11041;50.854;20.580;2022-07-29T03:33:32;99124.84;;;12.20;80.13
21760;BME280;11041;50.854;20.580;2022-07-29T03:35:58;99116.72;;;12.14;80.23
21760;BME280;11041;50.854;20.580;2022-07-29T03:38:29;99118.22;;;12.21;81.09
21760;BME280;11041;50.854;20.580;2022-07-29T03:41:05;99121.47;;;12.23;80.93
21760;BME280;11041;50.854;20.580;2022-07-29T03:43:37;99126.03;;;12.27;81.02
21760;BME280;11041;50.854;20.580;2022-07-29T03:46:09;99128.63;;;12.32;81.57
21760;BME280;11041;50.854;20.580;2022-07-29T03:48:41;99121.69;;;12.35;81.34
21760;BME280;11041;50.854;20.580;2022-07-29T03:51:09;99123.94;;;12.33;81.50
21760;BME280;11041;50.854;20.580;2022-07-29T03:53:36;99138.06;;;12.40;81.35
21760;BME280;11041;50.854;20.580;2022-07-29T03:56:04;99127.03;;;12.40;81.33
21760;BME280;11041;50.854;20.580;2022-07-29T03:58:33;99131.78;;;12.48;81.55
21760;BME280;11041;50.854;20.580;2022-07-29T04:01:01;99124.34;;;12.49;81.73
21760;BME280;11041;50.854;20.580;2022-07-29T04:03:28;99123.88;;;12.55;81.57
21760;BME280;11041;50.854;20.580;2022-07-29T04:06:06;99130.03;;;12.61;81.58
21760;BME280;11041;50.854;20.580;2022-07-29T04:08:34;99128.59;;;12.64;82.22
21760;BME280;11041;50.854;20.580;2022-07-29T04:11:02;99124.41;;;12.75;82.31
21760;BME280;11041;50.854;20.580;2022-07-29T04:13:28;99126.88;;;12.85;81.91
21760;BME280;11041;50.854;20.580;2022-07-29T04:15:55;99125.44;;;12.96;82.09
21760;BME280;11041;50.854;20.580;2022-07-29T04:18:22;99123.47;;;13.06;82.11
21760;BME280;11041;50.854;20.580;2022-07-29T04:20:49;99122.34;;;13.15;82.09
21760;BME280;11041;50.854;20.580;2022-07-29T04:23:16;99119.47;;;13.20;82.11
21760;BME280;11041;50.854;20.580;2022-07-29T04:25:43;99126.78;;;13.34;82.28
21760;BME280;11041;50.854;20.580;2022-07-29T04:28:10;99135.72;;;13.48;82.64
21760;BME280;11041;50.854;20.580;2022-07-29T04:30:39;99133.91;;;13.61;82.52
21760;BME280;11041;50.854;20.580;2022-07-29T04:33:07;99127.25;;;13.71;82.49
21760;BME280;11041;50.854;20.580;2022-07-29T04:35:36;99126.41;;;13.88;82.44
21760;BME280;11041;50.854;20.580;2022-07-29T04:38:05;99139.72;;;14.03;81.99
21760;BME280;11041;50.854;20.580;2022-07-29T04:40:33;99135.75;;;14.21;81.52
21760;BME280;11041;50.854;20.580;2022-07-29T04:43:02;99121.72;;;14.35;81.10
21760;BME280;11041;50.854;20.580;2022-07-29T04:45:28;99120.84;;;14.52;81.08
21760;BME280;11041;50.854;20.580;2022-07-29T04:47:55;99120.47;;;14.71;80.80
21760;BME280;11041;50.854;20.580;2022-07-29T04:50:22;99101.72;;;14.77;80.67
21760;BME280;11041;50.854;20.580;2022-07-29T04:52:49;99117.88;;;14.96;79.98
21760;BME280;11041;50.854;20.580;2022-07-29T04:55:15;99121.56;;;15.08;79.33
21760;BME280;11041;50.854;20.580;2022-07-29T04:57:42;99119.19;;;15.19;78.51
21760;BME280;11041;50.854;20.580;2022-07-29T05:00:09;99121.91;;;15.28;77.32
21760;BME280;11041;50.854;20.580;2022-07-29T05:02:36;99116.28;;;15.37;76.85
21760;BME280;11041;50.854;20.580;2022-07-29T05:05:03;99121.06;;;15.48;76.30
21760;BME280;11041;50.854;20.580;2022-07-29T05:07:29;99128.16;;;15.58;75.35
21760;BME280;11041;50.854;20.580;2022-07-29T05:09:56;99116.19;;;15.66;74.34
21760;BME280;11041;50.854;20.580;2022-07-29T05:12:24;99121.34;;;15.76;73.55
21760;BME280;11041;50.854;20.580;2022-07-29T05:14:50;99121.84;;;15.91;73.07
21760;BME280;11041;50.854;20.580;2022-07-29T05:17:18;99131.00;;;16.04;72.19
21760;BME280;11041;50.854;20.580;2022-07-29T05:19:44;99120.63;;;16.13;71.65
21760;BME280;11041;50.854;20.580;2022-07-29T05:22:11;99122.63;;;16.25;71.12
21760;BME280;11041;50.854;20.580;2022-07-29T05:24:37;99117.00;;;16.33;71.02
21760;BME280;11041;50.854;20.580;2022-07-29T05:27:04;99106.13;;;16.40;71.00
21760;BME280;11041;50.854;20.580;2022-07-29T05:29:30;99111.31;;;16.54;69.90
21760;BME280;11041;50.854;20.580;2022-07-29T05:31:57;99111.31;;;16.67;69.62
21760;BME280;11041;50.854;20.580;2022-07-29T05:34:24;99116.09;;;16.78;68.61
21760;BME280;11041;50.854;20.580;2022-07-29T05:36:51;99106.16;;;16.90;68.37
21760;BME280;11041;50.854;20.580;2022-07-29T05:39:18;99116.97;;;17.07;66.56
21760;BME280;11041;50.854;20.580;2022-07-29T05:41:44;99114.91;;;17.16;66.42
21760;BME280;11041;50.854;20.580;2022-07-29T05:44:11;99111.63;;;17.27;65.37
21760;BME280;11041;50.854;20.580;2022-07-29T05:46:39;99113.94;;;17.37;66.18
21760;BME280;11041;50.854;20.580;2022-07-29T05:49:06;99106.69;;;17.48;65.77
21760;BME280;11041;50.854;20.580;2022-07-29T05:51:34;99101.00;;;17.57;65.14
21760;BME280;11041;50.854;20.580;2022-07-29T05:54:02;99114.97;;;17.73;64.12
21760;BME280;11041;50.854;20.580;2022-07-29T05:56:28;99118.84;;;17.84;63.00
21760;BME280;11041;50.854;20.580;2022-07-29T05:58:55;99106.41;;;17.94;62.70
21760;BME280;11041;50.854;20.580;2022-07-29T06:01:21;99103.94;;;18.04;63.55
21760;BME280;11041;50.854;20.580;2022-07-29T06:03:48;99109.78;;;18.15;61.13
21760;BME280;11041;50.854;20.580;2022-07-29T06:06:14;99104.41;;;18.22;62.10
21760;BME280;11041;50.854;20.580;2022-07-29T06:08:41;99112.19;;;18.33;62.60
21760;BME280;11041;50.854;20.580;2022-07-29T06:11:08;99113.56;;;18.39;61.82
21760;BME280;11041;50.854;20.580;2022-07-29T06:13:37;99105.84;;;18.48;59.33
21760;BME280;11041;50.854;20.580;2022-07-29T06:16:03;99114.81;;;18.57;59.40
21760;BME280;11041;50.854;20.580;2022-07-29T06:18:30;99108.19;;;18.62;59.69
21760;BME280;11041;50.854;20.580;2022-07-29T06:20:57;99123.94;;;18.73;59.48
21760;BME280;11041;50.854;20.580;2022-07-29T06:23:24;99102.41;;;18.70;58.55
21760;BME280;11041;50.854;20.580;2022-07-29T06:25:50;99107.53;;;18.84;60.07
21760;BME280;11041;50.854;20.580;2022-07-29T06:28:16;99100.50;;;18.90;58.65
21760;BME280;11041;50.854;20.580;2022-07-29T06:30:43;99098.34;;;19.00;57.93
21760;BME280;11041;50.854;20.580;2022-07-29T06:33:17;99099.34;;;19.07;58.24
21760;BME280;11041;50.854;20.580;2022-07-29T06:35:45;99106.66;;;19.15;58.13
21760;BME280;11041;50.854;20.580;2022-07-29T06:38:14;99102.34;;;19.18;57.86
21760;BME280;11041;50.854;20.580;2022-07-29T06:40:46;99104.53;;;19.28;57.01
21760;BME280;11041;50.854;20.580;2022-07-29T06:43:42;99105.44;;;19.32;56.99
21760;BME280;11041;50.854;20.580;2022-07-29T06:46:15;99107.19;;;19.41;56.84
21760;BME280;11041;50.854;20.580;2022-07-29T06:48:44;99117.63;;;19.44;55.11
21760;BME280;11041;50.854;20.580;2022-07-29T06:51:12;99122.53;;;19.50;55.86
21760;BME280;11041;50.854;20.580;2022-07-29T06:53:39;99125.06;;;19.55;54.79
21760;BME280;11041;50.854;20.580;2022-07-29T06:56:07;99113.16;;;19.58;55.31
21760;BME280;11041;50.854;20.580;2022-07-29T06:58:40;99118.78;;;19.62;55.50
21760;BME280;11041;50.854;20.580;2022-07-29T07:01:07;99125.72;;;19.68;55.18
21760;BME280;11041;50.854;20.580;2022-07-29T07:03:34;99133.50;;;19.78;55.08
21760;BME280;11041;50.854;20.580;2022-07-29T07:06:01;99125.22;;;19.82;53.94
21760;BME280;11041;50.854;20.580;2022-07-29T07:08:27;99136.94;;;19.91;53.37
21760;BME280;11041;50.854;20.580;2022-07-29T07:10:54;99133.88;;;19.96;53.29
21760;BME280;11041;50.854;20.580;2022-07-29T07:13:21;99138.41;;;20.05;53.57
21760;BME280;11041;50.854;20.580;2022-07-29T07:15:48;99131.72;;;20.09;53.57
21760;BME280;11041;50.854;20.580;2022-07-29T07:18:15;99131.41;;;20.14;53.11
21760;BME280;11041;50.854;20.580;2022-07-29T07:20:43;99123.97;;;20.22;52.61
21760;BME280;11041;50.854;20.580;2022-07-29T07:23:10;99116.84;;;20.25;51.87
21760;BME280;11041;50.854;20.580;2022-07-29T07:25:37;99120.06;;;20.27;52.33
21760;BME280;11041;50.854;20.580;2022-07-29T07:28:04;99118.94;;;20.31;51.95
21760;BME280;11041;50.854;20.580;2022-07-29T07:30:30;99110.53;;;20.28;52.65
21760;BME280;11041;50.854;20.580;2022-07-29T07:32:57;99118.59;;;20.33;53.78
21760;BME280;11041;50.854;20.580;2022-07-29T07:35:24;99118.28;;;20.38;52.16
21760;BME280;11041;50.854;20.580;2022-07-29T07:37:51;99125.59;;;20.46;52.04
21760;BME280;11041;50.854;20.580;2022-07-29T07:40:17;99114.50;;;20.50;52.10
21760;BME280;11041;50.854;20.580;2022-07-29T07:42:44;99121.06;;;20.61;52.52
21760;BME280;11041;50.854;20.580;2022-07-29T07:45:11;99115.50;;;20.61;52.94
21760;BME280;11041;50.854;20.580;2022-07-29T07:47:39;99117.72;;;20.75;52.17
21760;BME280;11041;50.854;20.580;2022-07-29T07:50:09;99130.56;;;20.79;52.14
21760;BME280;11041;50.854;20.580;2022-07-29T07:52:50;99121.44;;;20.82;52.08
21760;BME280;11041;50.854;20.580;2022-07-29T07:55:18;99121.53;;;20.90;51.39
21760;BME280;11041;50.854;20.580;2022-07-29T07:57:46;99112.44;;;20.93;51.64
21760;BME280;11041;50.854;20.580;2022-07-29T08:00:16;99118.47;;;20.98;50.40
21760;BME280;11041;50.854;20.580;2022-07-29T08:02:43;99117.41;;;21.06;50.69
21760;BME280;11041;50.854;20.580;2022-07-29T08:05:13;99115.91;;;21.13;51.03
21760;BME280;11041;50.854;20.580;2022-07-29T08:07:47;99108.06;;;21.22;51.19
21760;BME280;11041;50.854;20.580;2022-07-29T08:10:16;99099.59;;;21.18;50.70
21760;BME280;11041;50.854;20.580;2022-07-29T08:13:07;99105.19;;;21.18;50.02
21760;BME280;11041;50.854;20.580;2022-07-29T08:15:35;99114.81;;;21.21;49.02
21760;BME280;11041;50.854;20.580;2022-07-29T08:18:01;99092.34;;;21.14;49.65
21760;BME280;11041;50.854;20.580;2022-07-29T08:20:28;99106.75;;;21.16;50.92
21760;BME280;11041;50.854;20.580;2022-07-29T08:22:56;99108.06;;;21.22;49.48
21760;BME280;11041;50.854;20.580;2022-07-29T08:25:22;99101.22;;;21.19;49.78
21760;BME280;11041;50.854;20.580;2022-07-29T08:27:49;99114.53;;;21.30;50.58
21760;BME280;11041;50.854;20.580;2022-07-29T08:30:15;99107.03;;;21.34;51.33
21760;BME280;11041;50.854;20.580;2022-07-29T08:32:42;99112.41;;;21.46;49.97
21760;BME280;11041;50.854;20.580;2022-07-29T08:35:08;99105.25;;;21.48;51.37
21760;BME280;11041;50.854;20.580;2022-07-29T08:37:35;99105.34;;;21.56;49.39
21760;BME280;11041;50.854;20.580;2022-07-29T08:40:02;99113.41;;;21.64;48.42
21760;BME280;11041;50.854;20.580;2022-07-29T08:42:30;99115.13;;;21.73;48.82
21760;BME280;11041;50.854;20.580;2022-07-29T08:44:57;99105.59;;;21.77;49.30
21760;BME280;11041;50.854;20.580;2022-07-29T08:47:25;99106.84;;;21.83;49.79
21760;BME280;11041;50.854;20.580;2022-07-29T08:49:53;99113.38;;;21.95;49.39
21760;BME280;11041;50.854;20.580;2022-07-29T08:52:25;99106.63;;;21.99;49.17
21760;BME280;11041;50.854;20.580;2022-07-29T08:54:53;99107.94;;;22.09;49.08
21760;BME280;11041;50.854;20.580;2022-07-29T08:57:21;99106.72;;;22.10;48.96
21760;BME280;11041;50.854;20.580;2022-07-29T08:59:50;99099.19;;;22.14;48.80
21760;BME280;11041;50.854;20.580;2022-07-29T09:02:22;99104.09;;;22.21;47.95
21760;BME280;11041;50.854;20.580;2022-07-29T09:04:51;99094.13;;;22.27;47.12
21760;BME280;11041;50.854;20.580;2022-07-29T09:07:18;99099.38;;;22.32;47.67
21760;BME280;11041;50.854;20.580;2022-07-29T09:09:45;99104.72;;;22.44;49.15
21760;BME280;11041;50.854;20.580;2022-07-29T09:12:13;99103.22;;;22.58;48.09
21760;BME280;11041;50.854;20.580;2022-07-29T09:14:41;99092.91;;;22.69;47.28
21760;BME280;11041;50.854;20.580;2022-07-29T09:17:08;99085.78;;;22.79;47.04
21760;BME280;11041;50.854;20.580;2022-07-29T09:19:37;99092.22;;;22.86;47.30
21760;BME280;11041;50.854;20.580;2022-07-29T09:22:06;99081.06;;;22.93;46.22
21760;BME280;11041;50.854;20.580;2022-07-29T09:24:45;99083.91;;;22.97;45.30
21760;BME280;11041;50.854;20.580;2022-07-29T09:27:21;99084.31;;;22.99;46.79
21760;BME280;11041;50.854;20.580;2022-07-29T09:30:05;99082.72;;;23.02;45.72
21760;BME280;11041;50.854;20.580;2022-07-29T09:32:54;99072.78;;;23.04;44.13
21760;BME280;11041;50.854;20.580;2022-07-29T09:35:24;99077.53;;;23.04;45.29
21760;BME280;11041;50.854;20.580;2022-07-29T09:37:52;99083.94;;;23.01;43.64
21760;BME280;11041;50.854;20.580;2022-07-29T09:40:36;99072.22;;;22.88;43.94
21760;BME280;11041;50.854;20.580;2022-07-29T09:43:14;99062.63;;;22.89;44.51
21760;BME280;11041;50.854;20.580;2022-07-29T09:45:41;99070.66;;;22.90;45.21
21760;BME280;11041;50.854;20.580;2022-07-29T09:48:20;99066.66;;;22.95;45.75
21760;BME280;11041;50.854;20.580;2022-07-29T09:50:47;99060.72;;;23.00;44.55
21760;BME280;11041;50.854;20.580;2022-07-29T09:53:38;99058.75;;;23.04;44.29
21760;BME280;11041;50.854;20.580;2022-07-29T09:56:06;99054.38;;;23.07;44.43
21760;BME280;11041;50.854;20.580;2022-07-29T09:58:33;99053.59;;;23.17;45.43
21760;BME280;11041;50.854;20.580;2022-07-29T10:01:01;99056.03;;;23.26;45.87
21760;BME280;11041;50.854;20.580;2022-07-29T10:03:29;99069.28;;;23.32;44.57
21760;BME280;11041;50.854;20.580;2022-07-29T10:06:10;99060.50;;;23.37;43.99
21760;BME280;11041;50.854;20.580;2022-07-29T10:08:41;99050.88;;;23.35;45.02
21760;BME280;11041;50.854;20.580;2022-07-29T10:11:17;99051.31;;;23.41;44.11
21760;BME280;11041;50.854;20.580;2022-07-29T10:13:47;99051.72;;;23.46;46.22
21760;BME280;11041;50.854;20.580;2022-07-29T10:16:16;99055.78;;;23.52;46.52
21760;BME280;11041;50.854;20.580;2022-07-29T10:18:44;99048.94;;;23.57;43.18
21760;BME280;11041;50.854;20.580;2022-07-29T10:21:11;99049.78;;;23.57;44.95
21760;BME280;11041;50.854;20.580;2022-07-29T10:23:39;99061.41;;;23.63;43.91
21760;BME280;11041;50.854;20.580;2022-07-29T10:26:07;99039.75;;;23.64;45.04
21760;BME280;11041;50.854;20.580;2022-07-29T10:28:36;99047.81;;;23.72;44.03
21760;BME280;11041;50.854;20.580;2022-07-29T10:31:06;99059.88;;;23.76;44.90
21760;BME280;11041;50.854;20.580;2022-07-29T10:34:07;99027.03;;;23.84;44.68
21760;BME280;11041;50.854;20.580;2022-07-29T10:42:25;99032.66;;;24.09;43.78
21760;BME280;11041;50.854;20.580;2022-07-29T10:44:55;99031.50;;;24.24;45.50
21760;BME280;11041;50.854;20.580;2022-07-29T10:47:25;99024.25;;;24.31;43.16
21760;BME280;11041;50.854;20.580;2022-07-29T10:50:05;99023.47;;;24.23;42.54
21760;BME280;11041;50.854;20.580;2022-07-29T10:55:36;99026.66;;;24.03;44.89
21760;BME280;11041;50.854;20.580;2022-07-29T10:58:18;99034.28;;;24.14;44.08
21760;BME280;11041;50.854;20.580;2022-07-29T11:00:52;99029.88;;;24.13;46.26
21760;BME280;11041;50.854;20.580;2022-07-29T11:03:45;99028.28;;;24.22;45.41
21760;BME280;11041;50.854;20.580;2022-07-29T11:06:13;99024.66;;;24.29;43.96
21760;BME280;11041;50.854;20.580;2022-07-29T11:08:41;99033.47;;;24.45;44.20
21760;BME280;11041;50.854;20.580;2022-07-29T11:13:50;99036.28;;;24.74;44.35
21760;BME280;11041;50.854;20.580;2022-07-29T11:16:20;99044.69;;;24.88;44.46
21760;BME280;11041;50.854;20.580;2022-07-29T11:21:44;99029.03;;;24.91;42.41
21760;BME280;11041;50.854;20.580;2022-07-29T11:24:20;99025.84;;;24.78;43.33
21760;BME280;11041;50.854;20.580;2022-07-29T11:27:19;99027.06;;;24.66;43.27
21760;BME280;11041;50.854;20.580;2022-07-29T11:29:58;99018.25;;;24.64;43.67
21760;BME280;11041;50.854;20.580;2022-07-29T11:32:43;99018.25;;;24.75;44.18
21760;BME280;11041;50.854;20.580;2022-07-29T11:35:22;99015.41;;;24.90;43.35
21760;BME280;11041;50.854;20.580;2022-07-29T11:38:27;99005.72;;;24.94;43.12
21760;BME280;11041;50.854;20.580;2022-07-29T11:41:26;98994.44;;;25.08;43.52
21760;BME280;11041;50.854;20.580;2022-07-29T11:43:58;99009.22;;;25.38;43.86
21760;BME280;11041;50.854;20.580;2022-07-29T11:46:47;99010.66;;;25.67;41.75
21760;BME280;11041;50.854;20.580;2022-07-29T11:49:26;99001.84;;;25.69;40.97
21760;BME280;11041;50.854;20.580;2022-07-29T11:51:57;98993.78;;;25.67;41.82
21760;BME280;11041;50.854;20.580;2022-07-29T11:54:32;98991.44;;;25.55;41.62
21760;BME280;11041;50.854;20.580;2022-07-29T11:57:00;99004.75;;;25.47;41.63
21760;BME280;11041;50.854;20.580;2022-07-29T11:59:26;99010.81;;;25.39;41.93
21760;BME280;11041;50.854;20.580;2022-07-29T12:01:58;99005.22;;;25.35;41.96
21760;BME280;11041;50.854;20.580;2022-07-29T12:04:26;98991.19;;;25.28;41.65
21760;BME280;11041;50.854;20.580;2022-07-29T12:06:54;98977.16;;;25.17;43.24
21760;BME280;11041;50.854;20.580;2022-07-29T12:09:23;98989.16;;;25.32;42.68
21760;BME280;11041;50.854;20.580;2022-07-29T12:11:59;98991.44;;;25.55;43.38
21760;BME280;11041;50.854;20.580;2022-07-29T12:14:29;98971.66;;;25.69;41.51
21760;BME280;11041;50.854;20.580;2022-07-29T12:16:57;98970.34;;;25.85;42.09
21760;BME280;11041;50.854;20.580;2022-07-29T12:19:26;98965.09;;;25.94;41.01
21760;BME280;11041;50.854;20.580;2022-07-29T12:21:55;98971.16;;;25.89;40.66
21760;BME280;11041;50.854;20.580;2022-07-29T12:24:25;98974.47;;;25.69;41.13
21760;BME280;11041;50.854;20.580;2022-07-29T12:26:57;98981.38;;;25.54;41.39
21760;BME280;11041;50.854;20.580;2022-07-29T12:29:25;98982.69;;;25.39;40.91
21760;BME280;11041;50.854;20.580;2022-07-29T12:31:54;98981.97;;;25.24;42.26
21760;BME280;11041;50.854;20.580;2022-07-29T12:34:24;98975.16;;;25.11;42.31
21760;BME280;11041;50.854;20.580;2022-07-29T12:36:53;98984.38;;;25.15;43.46
21760;BME280;11041;50.854;20.580;2022-07-29T12:39:20;98974.75;;;25.19;42.80
21760;BME280;11041;50.854;20.580;2022-07-29T12:41:47;98972.97;;;25.50;43.31
21760;BME280;11041;50.854;20.580;2022-07-29T12:44:13;98972.81;;;25.79;42.66
21760;BME280;11041;50.854;20.580;2022-07-29T12:46:39;98967.78;;;26.08;42.42
21760;BME280;11041;50.854;20.580;2022-07-29T12:49:06;98960.41;;;26.25;40.59
21760;BME280;11041;50.854;20.580;2022-07-29T12:51:37;98961.19;;;26.29;39.81
21760;BME280;11041;50.854;20.580;2022-07-29T12:54:09;98952.84;;;26.15;39.88
21760;BME280;11041;50.854;20.580;2022-07-29T12:56:44;98950.25;;;25.83;39.92
21760;BME280;11041;50.854;20.580;2022-07-29T12:59:17;98948.41;;;25.58;40.95
21760;BME280;11041;50.854;20.580;2022-07-29T13:01:46;98942.88;;;25.44;42.40
21760;BME280;11041;50.854;20.580;2022-07-29T13:04:33;98940.53;;;25.35;41.79
21760;BME280;11041;50.854;20.580;2022-07-29T13:07:07;98940.97;;;25.23;42.46
21760;BME280;11041;50.854;20.580;2022-07-29T13:09:42;98951.47;;;25.12;42.48
21760;BME280;11041;50.854;20.580;2022-07-29T13:12:11;98940.22;;;25.12;43.33
21760;BME280;11041;50.854;20.580;2022-07-29T13:14:47;98942.13;;;25.33;43.38
21760;BME280;11041;50.854;20.580;2022-07-29T13:17:20;98942.78;;;25.62;41.96
21760;BME280;11041;50.854;20.580;2022-07-29T13:19:52;98945.91;;;25.75;42.37
21760;BME280;11041;50.854;20.580;2022-07-29T13:22:23;98944.63;;;25.83;41.83
21760;BME280;11041;50.854;20.580;2022-07-29T13:24:59;98937.81;;;25.80;41.78
21760;BME280;11041;50.854;20.580;2022-07-29T13:27:34;98936.56;;;25.85;42.26